Time;durP1;ratioP1;P1;durP2;ratioP2;P2;SDS_P1;SDS_P2;PMS_P1;PMS_P2;Temp;Humidity;BMP_temperature;BMP_pressure;BME280_temperature;BME280_humidity;BME280_pressure;Samples;Min_cycle;Max_cycle;Signal;HPM_P1;HPM_P2
2021/05/27 00:00:31;;;;;;;19.63;15.27;;;;;;;17.58;70.45;99996.78;5053280;28;20039;-53
2021/05/27 00:02:57;;;;;;;21.60;16.80;;;;;;;17.52;70.17;99986.63;5053346;28;20455;-53
2021/05/27 00:05:23;;;;;;;18.60;16.52;;;;;;;17.46;70.11;99966.47;5053139;28;20120;-49
2021/05/27 00:07:50;;;;;;;18.00;16.17;;;;;;;17.43;70.44;99974.94;5052840;28;20103;-48
2021/05/27 00:10:18;;;;;;;18.77;16.55;;;;;;;17.54;71.21;99994.59;5053473;28;20032;-51
2021/05/27 00:12:43;;;;;;;20.40;17.73;;;;;;;17.26;71.12;99951.56;5053528;28;20048;-49
2021/05/27 00:15:10;;;;;;;18.83;16.88;;;;;;;17.57;71.05;99995.09;5052808;28;20037;-50
2021/05/27 00:17:36;;;;;;;20.42;18.33;;;;;;;17.40;71.51;99971.72;5051498;28;20033;-48
2021/05/27 00:20:04;;;;;;;17.05;15.35;;;;;;;17.54;71.45;99979.19;5052670;28;20124;-50
2021/05/27 00:22:30;;;;;;;18.73;16.67;;;;;;;17.46;71.48;99965.66;5052109;28;20032;-53
2021/05/27 00:24:56;;;;;;;18.05;16.20;;;;;;;17.58;71.56;99990.53;5052443;28;20041;-53
2021/05/27 00:27:22;;;;;;;20.80;17.85;;;;;;;17.47;71.79;99961.94;5053101;28;20402;-50
2021/05/27 00:29:47;;;;;;;17.02;14.23;;;;;;;17.58;71.57;99987.84;5052693;28;20033;-59
2021/05/27 00:32:13;;;;;;;10.52;9.38;;;;;;;17.57;71.17;99989.69;5052965;28;20079;-51
2021/05/27 00:34:39;;;;;;;11.27;10.25;;;;;;;17.50;70.85;99969.72;5066143;28;20033;-53
2021/05/27 00:37:04;;;;;;;11.73;10.50;;;;;;;17.48;70.98;99972.59;5072403;28;20035;-50
2021/05/27 00:39:30;;;;;;;11.45;10.25;;;;;;;17.46;70.61;99965.66;5072876;28;20047;-52
2021/05/27 00:41:57;;;;;;;12.30;11.13;;;;;;;17.48;70.93;99978.00;5059131;28;20048;-52
2021/05/27 00:44:28;;;;;;;13.60;11.82;;;;;;;17.37;71.13;99967.47;5052225;28;20060;-52
2021/05/27 00:46:55;;;;;;;11.43;10.40;;;;;;;17.50;70.99;99989.53;5052008;28;20414;-55
2021/05/27 00:49:21;;;;;;;13.57;11.30;;;;;;;17.41;70.93;99973.41;5052642;28;20090;-49
2021/05/27 00:51:48;;;;;;;11.70;10.45;;;;;;;17.50;70.96;99989.53;5052644;28;20033;-50
2021/05/27 00:54:14;;;;;;;11.10;9.88;;;;;;;17.52;70.98;99986.63;5052079;28;20140;-49
2021/05/27 00:56:41;;;;;;;11.55;10.45;;;;;;;17.53;70.53;99988.31;5052064;28;20037;-52
2021/05/27 00:59:08;;;;;;;12.85;10.48;;;;;;;17.52;70.93;99980.38;5052396;28;20099;-53
2021/05/27 01:01:34;;;;;;;12.07;10.77;;;;;;;17.56;70.36;99982.56;5052102;28;20037;-49
2021/05/27 01:04:00;;;;;;;12.77;11.52;;;;;;;17.53;71.27;99977.50;5051716;28;20045;-48
2021/05/27 01:06:26;;;;;;;12.23;11.02;;;;;;;17.50;70.87;99983.25;5051943;28;20029;-53
2021/05/27 01:08:52;;;;;;;13.43;11.70;;;;;;;17.15;71.23;99914.84;5052294;28;20033;-48
2021/05/27 01:11:18;;;;;;;13.43;12.13;;;;;;;17.42;71.02;99951.59;5051809;28;20514;-46
2021/05/27 01:13:44;;;;;;;13.82;12.48;;;;;;;17.48;71.58;99958.19;5051424;28;20035;-50
2021/05/27 01:16:15;;;;;;;13.48;11.27;;;;;;;17.20;71.68;99913.31;5051302;28;20565;-47
2021/05/27 01:18:41;;;;;;;12.98;11.68;;;;;;;17.52;71.40;99964.16;5051241;28;20033;-49
2021/05/27 01:21:07;;;;;;;13.27;12.07;;;;;;;17.53;71.39;99972.09;5051638;28;20730;-51
2021/05/27 01:23:32;;;;;;;13.20;11.90;;;;;;;17.56;71.48;99973.63;5051374;28;20552;-51
2021/05/27 01:25:59;;;;;;;12.40;11.30;;;;;;;17.43;71.29;99955.16;5051179;28;20087;-51
2021/05/27 01:28:28;;;;;;;16.85;15.25;;;;;;;17.58;71.54;99975.13;5051460;28;20078;-48
2021/05/27 01:30:54;;;;;;;16.85;15.25;;;;;;;17.60;71.25;99975.84;5050907;28;20125;-48
2021/05/27 01:33:19;;;;;;;17.45;15.75;;;;;;;17.60;71.04;99974.97;5054649;28;20025;-51
2021/05/27 01:35:46;;;;;;;17.25;15.65;;;;;;;17.61;71.21;99980.25;5071396;28;20071;-48
2021/05/27 01:38:23;;;;;;;17.58;15.45;;;;;;;17.75;71.62;99983.28;5070949;28;20068;-52
2021/05/27 01:40:50;;;;;;;16.45;14.73;;;;;;;17.59;70.49;99966.00;5071845;28;20102;-52
2021/05/27 01:43:16;;;;;;;17.85;15.95;;;;;;;17.66;70.52;99974.31;5070936;28;20063;-52
2021/05/27 01:45:42;;;;;;;19.92;17.45;;;;;;;17.71;70.58;99979.22;5071036;28;20047;-50
2021/05/27 01:48:08;;;;;;;19.50;17.60;;;;;;;17.12;70.51;99888.94;5071373;28;20036;-52
2021/05/27 01:50:34;;;;;;;18.75;16.75;;;;;;;17.61;70.47;99966.72;5071040;28;20107;-52
2021/05/27 01:53:06;;;;;;;16.58;14.85;;;;;;;17.71;71.49;99980.06;5070687;28;20036;-51
2021/05/27 01:55:33;;;;;;;17.42;15.63;;;;;;;17.75;70.87;99975.16;5070487;28;20024;-50
2021/05/27 01:57:59;;;;;;;16.38;14.63;;;;;;;17.74;70.81;99973.47;5071180;28;20043;-52
2021/05/27 02:00:26;;;;;;;16.75;15.20;;;;;;;17.77;70.83;99975.84;5070261;28;20037;-52
2021/05/27 02:02:52;;;;;;;17.45;15.65;;;;;;;17.77;70.70;99967.72;5070563;28;20040;-57
2021/05/27 02:05:18;;;;;;;17.50;15.48;;;;;;;17.69;70.74;99940.66;5071030;28;20056;-52
2021/05/27 02:07:43;;;;;;;16.73;15.13;;;;;;;17.79;70.29;99966.56;5070642;28;20097;-52
2021/05/27 02:10:09;;;;;;;16.40;14.70;;;;;;;17.87;70.42;99979.25;5069526;28;20039;-48
2021/05/27 02:12:46;;;;;;;18.08;16.15;;;;;;;17.90;70.35;99995.16;5070290;28;20452;-48
2021/05/27 02:15:12;;;;;;;16.98;15.32;;;;;;;17.82;70.37;99970.75;5070621;28;20048;-50
2021/05/27 02:17:38;;;;;;;17.67;14.98;;;;;;;17.86;70.53;99972.16;5070488;28;20036;-47
2021/05/27 02:20:05;;;;;;;17.70;15.25;;;;;;;17.88;70.43;99975.53;5070309;28;20029;-51
2021/05/27 02:22:31;;;;;;;18.33;15.88;;;;;;;17.90;70.56;99981.63;5070181;28;20083;-49
2021/05/27 02:24:56;;;;;;;16.70;14.55;;;;;;;17.92;70.30;99995.00;5049980;28;20056;-47
2021/05/27 02:27:22;;;;;;;17.08;15.00;;;;;;;17.83;70.20;99971.63;5050813;28;20409;-53
2021/05/27 02:29:48;;;;;;;16.83;15.23;;;;;;;17.82;70.26;99978.91;5049834;28;20029;-52
2021/05/27 02:32:13;;;;;;;19.85;15.18;;;;;;;17.87;70.36;99989.22;5050218;28;20059;-53
2021/05/27 02:34:39;;;;;;;17.67;14.85;;;;;;;17.84;70.54;99995.81;5052698;28;20128;-49
2021/05/27 02:37:04;;;;;;;16.35;14.65;;;;;;;17.65;70.58;99967.19;5050168;28;20045;-48
2021/05/27 02:39:30;;;;;;;18.33;14.05;;;;;;;17.79;70.67;99998.19;5050294;28;20044;-51
2021/05/27 02:41:56;;;;;;;15.73;14.23;;;;;;;17.74;70.79;99981.59;5049587;28;20049;-54
2021/05/27 02:44:21;;;;;;;16.20;13.68;;;;;;;17.79;70.77;99987.34;5050648;28;20102;-52
2021/05/27 02:46:47;;;;;;;14.60;13.10;;;;;;;17.75;70.67;99980.59;5050020;28;20040;-53
2021/05/27 02:49:12;;;;;;;14.13;12.80;;;;;;;17.46;70.87;99933.16;5049810;28;20390;-53
2021/05/27 02:51:38;;;;;;;16.35;14.60;;;;;;;17.76;70.99;99982.28;5051854;28;20029;-52
2021/05/27 02:54:04;;;;;;;15.57;14.07;;;;;;;17.82;71.21;99992.44;5050094;28;20037;-46
2021/05/27 02:56:30;;;;;;;15.15;13.65;;;;;;;17.84;71.10;99995.00;5049861;28;20483;-49
2021/05/27 02:58:55;;;;;;;15.18;13.45;;;;;;;17.73;71.22;99979.91;5049652;28;20039;-58
2021/05/27 03:01:21;;;;;;;14.50;12.93;;;;;;;17.43;71.27;99931.63;5049930;28;20041;-47
2021/05/27 03:03:48;;;;;;;15.93;13.48;;;;;;;17.78;71.38;99991.06;5049999;28;20033;-47
2021/05/27 03:06:14;;;;;;;14.05;12.68;;;;;;;17.81;71.48;100007.00;5056643;28;20056;-51
2021/05/27 03:08:43;;;;;;;14.77;13.30;;;;;;;17.49;71.58;99946.38;5069387;28;20128;-48
2021/05/27 03:11:09;;;;;;;15.95;14.25;;;;;;;17.78;71.65;99996.50;5069652;28;20035;-47
2021/05/27 03:13:35;;;;;;;14.65;12.95;;;;;;;17.77;71.73;100005.63;5069366;28;20028;-55
2021/05/27 03:16:02;;;;;;;13.38;11.93;;;;;;;17.45;71.88;99943.13;5069354;28;20059;-53
2021/05/27 03:18:30;;;;;;;12.82;11.52;;;;;;;17.38;71.66;99942.09;5055671;28;20395;-50
2021/05/27 03:21:00;;;;;;;14.45;12.98;;;;;;;17.64;71.77;99987.16;5069486;28;20458;-49
2021/05/27 03:23:26;;;;;;;13.98;12.57;;;;;;;17.61;71.99;99993.78;5069637;28;20086;-49
2021/05/27 03:25:52;;;;;;;13.93;12.52;;;;;;;17.68;71.97;99985.81;5069215;28;20417;-53
2021/05/27 03:28:18;;;;;;;14.90;13.40;;;;;;;17.67;71.91;99991.41;5064363;28;20036;-52
2021/05/27 03:30:44;;;;;;;15.13;13.63;;;;;;;17.60;71.91;99969.56;5052943;28;20040;-49
2021/05/27 03:33:10;;;;;;;15.80;14.30;;;;;;;17.63;72.02;99972.78;5048696;28;20043;-48
2021/05/27 03:35:35;;;;;;;17.05;15.30;;;;;;;17.60;71.98;99972.28;5049147;28;20523;-50
2021/05/27 03:38:01;;;;;;;19.63;17.42;;;;;;;17.64;71.83;99974.50;5049541;28;20110;-47
2021/05/27 03:40:27;;;;;;;18.02;14.85;;;;;;;17.83;71.76;99996.84;5048945;28;20037;-49
2021/05/27 03:42:54;;;;;;;16.45;12.95;;;;;;;17.85;71.90;99994.84;5050102;28;20425;-49
2021/05/27 03:45:21;;;;;;;13.80;12.40;;;;;;;17.87;71.60;99987.38;5049160;28;20395;-47
2021/05/27 03:47:47;;;;;;;14.07;12.65;;;;;;;17.23;71.31;99885.09;5049008;28;20029;-52
2021/05/27 03:50:15;;;;;;;16.00;14.40;;;;;;;17.94;71.15;99977.56;5048984;28;20044;-52
2021/05/27 03:52:42;;;;;;;15.00;13.50;;;;;;;17.92;70.92;99982.31;5049341;28;20167;-50
2021/05/27 03:55:10;;;;;;;15.00;13.63;;;;;;;18.00;71.08;99989.59;5049014;28;20062;-48
2021/05/27 03:57:37;;;;;;;15.68;13.52;;;;;;;18.02;70.88;100003.84;5048924;28;20464;-49
2021/05/27 04:02:50;;;;;;;15.38;13.73;;;;;;;18.02;70.94;99987.59;5048676;28;20055;-50
2021/05/27 04:07:59;;;;;;;15.23;13.68;;;;;;;18.26;70.34;99988.59;5048555;28;20032;-58
2021/05/27 04:10:25;;;;;;;15.35;13.82;;;;;;;18.31;70.11;99979.94;5049035;28;20040;-53
2021/05/27 04:12:52;;;;;;;14.65;13.23;;;;;;;18.26;69.58;99947.97;5049179;28;20040;-53
2021/05/27 04:15:33;;;;;;;13.77;12.48;;;;;;;18.65;68.96;99989.75;5061984;28;20059;-51
2021/05/27 04:18:08;;;;;;;14.40;13.00;;;;;;;18.69;68.66;99988.38;5069190;28;20036;-49
2021/05/27 04:20:38;;;;;;;14.05;12.73;;;;;;;18.53;68.46;99939.59;5068982;28;20032;-52
2021/05/27 04:23:06;;;;;;;15.98;14.25;;;;;;;18.83;67.74;99986.81;5068795;28;20055;-50
2021/05/27 04:25:32;;;;;;;20.98;15.18;;;;;;;18.94;67.17;99985.59;5068408;28;20037;-54
2021/05/27 04:27:59;;;;;;;17.02;15.18;;;;;;;19.00;66.86;99992.22;5068978;28;20040;-52
2021/05/27 04:30:28;;;;;;;16.08;14.05;;;;;;;19.00;66.94;99990.34;5062834;28;20516;-48
2021/05/27 04:33:07;;;;;;;17.30;14.48;;;;;;;19.19;66.79;99991.81;5050018;28;20608;-53
2021/05/27 04:35:40;;;;;;;16.83;13.90;;;;;;;19.27;66.31;99993.63;5052244;28;20040;-53
2021/05/27 04:38:14;;;;;;;16.35;14.63;;;;;;;19.28;65.89;99999.91;5052505;28;20090;-51
2021/05/27 04:40:48;;;;;;;17.95;15.27;;;;;;;19.27;65.98;99995.50;5052408;28;20037;-48
2021/05/27 04:43:15;;;;;;;18.73;16.35;;;;;;;19.33;65.93;100001.06;5051820;28;20128;-51
2021/05/27 04:45:41;;;;;;;18.25;15.23;;;;;;;19.41;65.78;100004.75;5055073;28;20049;-52
2021/05/27 04:48:10;;;;;;;19.63;15.52;;;;;;;19.48;65.72;100005.75;5072182;28;20482;-49
2021/05/27 04:50:37;;;;;;;17.50;13.73;;;;;;;19.52;65.34;100004.34;5072515;28;20123;-46
2021/05/27 04:53:03;;;;;;;24.23;13.93;;;;;;;19.56;64.94;100010.28;5071997;28;20032;-58
2021/05/27 04:55:30;;;;;;;23.10;13.43;;;;;;;19.57;64.97;100001.09;5071765;28;20036;-52
2021/05/27 04:57:55;;;;;;;20.95;12.85;;;;;;;19.58;64.70;100002.78;5071917;28;20040;-51
2021/05/27 05:00:24;;;;;;;18.00;12.77;;;;;;;19.56;64.37;99983.13;5070097;28;20055;-47
2021/05/27 05:02:54;;;;;;;16.38;11.65;;;;;;;19.69;64.19;100004.25;5055215;28;20049;-47
2021/05/27 05:05:21;;;;;;;17.25;11.60;;;;;;;19.33;63.83;99930.50;5051595;28;20040;-53
2021/05/27 05:07:49;;;;;;;16.70;11.75;;;;;;;19.74;63.73;99993.69;5051531;28;20043;-53
2021/05/27 05:10:14;;;;;;;18.30;13.25;;;;;;;19.77;63.58;99993.34;5051615;28;20052;-51
2021/05/27 05:12:46;;;;;;;16.35;13.02;;;;;;;19.88;63.24;99992.94;5051683;28;20037;-53
2021/05/27 05:15:12;;;;;;;16.58;13.60;;;;;;;19.99;62.96;99988.13;5051684;28;20037;-51
2021/05/27 05:17:38;;;;;;;15.93;13.95;;;;;;;20.07;62.67;99980.75;5063849;28;20037;-46
2021/05/27 05:20:05;;;;;;;15.38;13.73;;;;;;;20.28;61.45;99981.09;5071051;28;20032;-58
2021/05/27 05:22:30;;;;;;;16.45;14.40;;;;;;;20.50;61.23;99984.78;5071444;28;20041;-48
2021/05/27 05:24:57;;;;;;;16.00;14.38;;;;;;;20.77;60.34;99990.63;5071558;28;20040;-53
2021/05/27 05:27:23;;;;;;;17.98;15.45;;;;;;;20.67;58.91;99908.47;5071111;28;20119;-49
2021/05/27 05:29:48;;;;;;;16.75;15.18;;;;;;;21.73;57.22;99983.53;5069980;28;20127;-53
2021/05/27 05:32:14;;;;;;;17.50;15.30;;;;;;;22.59;55.02;99982.63;5067644;28;20123;-50
2021/05/27 05:34:40;;;;;;;16.70;15.00;;;;;;;23.12;52.71;99972.19;5061495;28;20071;-51
2021/05/27 05:37:06;;;;;;;15.65;14.18;;;;;;;23.20;52.37;99972.88;5070893;28;20039;-52
2021/05/27 05:39:32;;;;;;;17.95;16.05;;;;;;;23.15;52.61;99979.97;5070354;28;20048;-47
2021/05/27 05:41:57;;;;;;;16.23;14.50;;;;;;;23.04;52.89;99976.78;5052807;28;20032;-52
2021/05/27 05:44:23;;;;;;;15.38;13.88;;;;;;;22.97;52.71;99973.19;5069875;28;20044;-51
2021/05/27 05:46:49;;;;;;;14.55;13.15;;;;;;;23.01;52.25;99974.47;5070506;28;20041;-50
2021/05/27 05:49:15;;;;;;;14.35;13.00;;;;;;;22.92;52.94;99956.59;5065854;28;20044;-51
2021/05/27 05:51:41;;;;;;;15.13;13.60;;;;;;;23.01;52.84;99971.75;5070718;28;20052;-47
2021/05/27 05:54:06;;;;;;;16.63;14.93;;;;;;;22.76;52.68;99914.91;5070499;28;20098;-51
2021/05/27 05:56:32;;;;;;;15.55;14.02;;;;;;;22.96;52.76;99963.31;5071387;28;20446;-50
2021/05/27 05:58:57;;;;;;;16.35;14.68;;;;;;;22.93;53.06;99974.66;5064383;28;20029;-51
2021/05/27 06:01:23;;;;;;;16.88;14.95;;;;;;;22.78;52.94;99970.16;5050312;28;20072;-47
2021/05/27 06:03:48;;;;;;;16.70;14.75;;;;;;;22.73;53.22;99983.56;5050835;28;20094;-50
2021/05/27 06:06:13;;;;;;;16.05;12.93;;;;;;;22.62;53.23;99978.63;5050834;28;20608;-53
2021/05/27 06:08:40;;;;;;;16.17;13.55;;;;;;;22.51;53.51;99986.34;5050690;28;20398;-51
2021/05/27 06:11:06;;;;;;;14.57;13.07;;;;;;;21.89;54.13;99934.19;5067111;28;20042;-56
2021/05/27 06:13:32;;;;;;;14.65;13.23;;;;;;;21.93;55.21;99986.44;5062500;28;20033;-53
2021/05/27 06:15:57;;;;;;;15.38;13.82;;;;;;;21.62;55.63;99999.28;5050769;28;20095;-53
2021/05/27 06:18:24;;;;;;;15.32;13.77;;;;;;;21.26;56.78;99981.06;5050375;28;20033;-51
2021/05/27 06:20:49;;;;;;;16.23;14.32;;;;;;;20.99;57.98;99994.34;5063366;28;20082;-51
2021/05/27 06:23:15;;;;;;;16.35;14.07;;;;;;;20.82;58.61;100001.00;5070006;28;20393;-52
2021/05/27 06:25:40;;;;;;;15.07;13.48;;;;;;;20.64;59.11;99978.53;5070278;28;20036;-51
2021/05/27 06:28:06;;;;;;;15.95;14.20;;;;;;;20.67;59.36;99988.19;5070331;28;20028;-53
2021/05/27 06:30:32;;;;;;;16.73;15.00;;;;;;;20.57;59.48;99987.63;5064147;28;20036;-49
2021/05/27 06:32:58;;;;;;;20.35;15.15;;;;;;;20.53;60.16;99972.72;5070316;28;20606;-49
2021/05/27 06:35:24;;;;;;;19.55;15.73;;;;;;;20.62;59.66;99974.31;5070408;28;20086;-47
2021/05/27 06:37:51;;;;;;;16.67;14.98;;;;;;;20.93;59.07;99990.50;5069864;28;20486;-52
2021/05/27 06:40:19;;;;;;;17.23;15.63;;;;;;;21.04;58.75;99977.44;5060551;28;20036;-49
2021/05/27 06:42:45;;;;;;;17.23;15.32;;;;;;;21.29;57.99;99994.31;5064287;28;20044;-50
2021/05/27 06:45:13;;;;;;;19.33;15.90;;;;;;;21.14;57.28;99947.19;5059078;28;20534;-49
2021/05/27 06:47:39;;;;;;;18.10;15.48;;;;;;;21.47;56.59;99974.81;5057595;28;20081;-50
2021/05/27 06:50:06;;;;;;;19.60;16.55;;;;;;;21.48;55.93;99952.00;5058776;28;20040;-60
2021/05/27 06:52:32;;;;;;;16.58;14.98;;;;;;;21.86;54.94;99997.28;5055005;28;20032;-54
2021/05/27 06:54:57;;;;;;;19.80;17.83;;;;;;;21.98;55.24;99992.16;5059108;28;20640;-53
2021/05/27 06:57:23;;;;;;;23.77;17.40;;;;;;;22.04;54.56;99977.72;5057313;28;20036;-50
2021/05/27 06:59:48;;;;;;;22.83;18.35;;;;;;;22.20;53.83;99982.09;5057811;28;20035;-53
2021/05/27 07:02:14;;;;;;;19.60;17.50;;;;;;;22.17;54.40;99987.09;5063505;28;20036;-49
2021/05/27 07:04:39;;;;;;;20.38;15.30;;;;;;;22.16;54.01;99994.41;5067339;28;20060;-53
2021/05/27 07:07:05;;;;;;;15.27;13.68;;;;;;;22.10;53.66;99989.75;5058749;28;20470;-50
2021/05/27 07:09:31;;;;;;;14.55;13.13;;;;;;;22.03;53.46;99967.88;5067969;28;20115;-49
2021/05/27 07:11:56;;;;;;;15.90;13.70;;;;;;;22.19;53.38;99979.53;5066211;28;20024;-46
2021/05/27 07:14:22;;;;;;;14.30;11.93;;;;;;;22.29;52.79;99990.13;5069423;28;20127;-52
2021/05/27 07:16:47;;;;;;;14.40;11.63;;;;;;;22.45;51.85;99992.56;5069123;28;20035;-48
2021/05/27 07:19:13;;;;;;;12.57;11.38;;;;;;;22.69;51.05;99992.34;5063191;28;20527;-47
2021/05/27 07:21:40;;;;;;;12.45;11.15;;;;;;;22.66;50.04;99930.78;5069921;28;20032;-52
2021/05/27 07:24:06;;;;;;;15.73;12.88;;;;;;;23.28;49.45;99999.19;5069115;28;20040;-52
2021/05/27 07:26:32;;;;;;;16.23;14.52;;;;;;;23.53;48.81;99986.91;5069342;28;20032;-51
2021/05/27 07:28:58;;;;;;;17.40;13.15;;;;;;;23.75;48.51;99972.03;5066718;28;20036;-52
2021/05/27 07:31:23;;;;;;;14.98;13.48;;;;;;;24.22;47.44;99973.97;5048845;28;20033;-48
2021/05/27 07:33:49;;;;;;;15.60;13.52;;;;;;;24.65;46.45;99981.75;5055364;28;20051;-49
2021/05/27 07:36:15;;;;;;;15.43;13.07;;;;;;;25.08;45.51;99983.16;5031352;28;20063;-48
2021/05/27 07:38:40;;;;;;;15.50;13.63;;;;;;;25.51;44.45;99981.72;5059940;28;20375;-64
2021/05/27 07:41:09;;;;;;;14.27;12.82;;;;;;;25.91;43.66;99986.13;5064757;28;20063;-48
2021/05/27 07:43:34;;;;;;;15.40;13.90;;;;;;;26.05;43.02;99986.88;5067121;28;20067;-50
2021/05/27 07:46:00;;;;;;;14.55;12.68;;;;;;;25.90;43.23;99987.19;5069201;28;20264;-50
2021/05/27 07:48:25;;;;;;;15.07;13.57;;;;;;;25.77;43.59;99988.13;5068463;28;20101;-53
2021/05/27 07:50:50;;;;;;;15.43;13.82;;;;;;;25.52;43.46;99985.28;5059217;28;20033;-50
2021/05/27 07:53:19;;;;;;;16.02;14.43;;;;;;;25.42;43.73;99993.13;5049421;28;20040;-52
2021/05/27 07:55:45;;;;;;;16.80;15.07;;;;;;;25.13;44.45;99992.63;5048656;28;20029;-51
2021/05/27 07:58:10;;;;;;;16.45;14.32;;;;;;;24.81;45.37;99985.13;5049016;28;20033;-49
2021/05/27 08:00:36;;;;;;;18.00;15.00;;;;;;;24.43;46.45;99972.94;5047044;28;20138;-55
2021/05/27 08:03:01;;;;;;;18.05;14.85;;;;;;;24.26;47.20;99982.63;5058450;28;20366;-53
2021/05/27 08:05:27;;;;;;;15.70;13.93;;;;;;;24.01;47.50;99969.53;5064949;28;20055;-53
2021/05/27 08:07:53;;;;;;;17.48;15.38;;;;;;;23.69;48.07;99994.72;5049473;28;20037;-54
2021/05/27 08:10:19;;;;;;;15.80;14.02;;;;;;;23.32;48.99;99999.66;5057643;28;20105;-53
2021/05/27 08:12:44;;;;;;;15.15;13.65;;;;;;;23.16;49.45;99998.09;5063492;28;20431;-50
2021/05/27 08:15:10;;;;;;;16.58;13.63;;;;;;;23.07;49.55;99990.03;5057788;28;20032;-48
2021/05/27 08:17:36;;;;;;;15.98;13.35;;;;;;;23.02;49.92;99999.88;5067135;28;20425;-50
2021/05/27 08:20:04;;;;;;;15.05;13.45;;;;;;;22.98;50.24;100001.31;5052173;28;20112;-53
2021/05/27 08:22:30;;;;;;;15.77;13.57;;;;;;;22.88;50.33;99996.22;5061773;28;20036;-51
2021/05/27 08:24:55;;;;;;;15.93;13.55;;;;;;;22.75;50.82;99995.13;5059239;28;20063;-54
2021/05/27 08:27:21;;;;;;;16.60;13.68;;;;;;;22.63;51.38;100002.16;5067351;28;20115;-54
2021/05/27 08:29:47;;;;;;;15.65;13.82;;;;;;;22.39;51.99;99982.44;5071154;28;20048;-48
2021/05/27 08:32:12;;;;;;;15.50;13.93;;;;;;;22.34;52.60;99995.81;5059826;28;20040;-51
2021/05/27 08:34:38;;;;;;;20.85;14.27;;;;;;;22.22;52.35;99988.19;5046521;28;20049;-49
2021/05/27 08:37:04;;;;;;;17.42;13.70;;;;;;;21.78;52.78;99926.56;5070031;28;20063;-56
2021/05/27 08:39:30;;;;;;;16.02;14.35;;;;;;;22.11;52.53;99996.88;5070144;28;20118;-54
2021/05/27 08:41:57;;;;;;;16.45;12.98;;;;;;;22.04;52.20;99987.81;5054772;28;20520;-47
2021/05/27 08:44:23;;;;;;;14.30;12.80;;;;;;;22.15;52.42;100000.91;5070556;28;20529;-49
2021/05/27 08:46:48;;;;;;;15.52;13.88;;;;;;;22.23;51.98;99998.06;5070188;28;20123;-46
2021/05/27 08:49:14;;;;;;;15.65;13.13;;;;;;;22.34;51.21;99995.81;5070438;28;20028;-49
2021/05/27 08:51:40;;;;;;;16.77;13.55;;;;;;;22.32;51.01;99989.72;5062694;28;20028;-52
2021/05/27 08:54:06;;;;;;;15.13;13.50;;;;;;;22.45;50.75;100005.34;5057410;28;20116;-51
2021/05/27 08:56:33;;;;;;;14.80;13.40;;;;;;;22.31;51.30;99974.41;5060565;28;20036;-57
2021/05/27 08:58:59;;;;;;;16.35;12.98;;;;;;;22.49;51.49;99999.34;5057051;28;20036;-52
2021/05/27 09:01:25;;;;;;;14.05;12.60;;;;;;;22.47;51.34;100004.16;5061485;28;20039;-51
2021/05/27 09:03:54;;;;;;;14.55;13.05;;;;;;;22.53;50.85;100007.94;5057086;28;20482;-50
2021/05/27 09:06:20;;;;;;;14.10;12.57;;;;;;;22.50;50.87;100003.75;5054625;28;20059;-53
2021/05/27 09:08:46;;;;;;;13.93;12.52;;;;;;;22.39;50.75;99993.34;5055792;28;20529;-51
2021/05/27 09:11:20;;;;;;;15.18;13.60;;;;;;;22.40;51.46;100016.84;5056767;28;20063;-51
2021/05/27 09:14:01;;;;;;;14.30;13.00;;;;;;;22.39;51.99;100006.97;5055918;28;20041;-49
2021/05/27 09:16:27;;;;;;;14.45;12.95;;;;;;;22.31;51.45;99999.81;5055208;28;20032;-51
2021/05/27 09:18:53;;;;;;;15.45;13.70;;;;;;;22.44;51.87;100009.13;5064245;28;20048;-55
2021/05/27 09:21:36;;;;;;;15.75;13.23;;;;;;;22.60;51.61;100005.28;5056425;28;20036;-54
2021/05/27 09:24:01;;;;;;;14.07;12.60;;;;;;;22.50;51.25;100003.75;5064678;28;20033;-56
2021/05/27 09:26:27;;;;;;;15.35;13.75;;;;;;;22.41;51.18;100002.16;5056313;28;20490;-55
2021/05/27 09:29:09;;;;;;;15.00;12.75;;;;;;;22.50;51.75;100016.53;5054001;28;20036;-52
2021/05/27 09:31:35;;;;;;;15.77;14.25;;;;;;;22.16;51.65;99961.69;5057361;28;20119;-50
2021/05/27 09:34:03;;;;;;;16.85;15.02;;;;;;;22.48;52.39;100010.44;5052780;28;20471;-50
2021/05/27 09:36:29;;;;;;;16.48;14.68;;;;;;;22.64;52.01;100006.56;5060787;28;20068;-52
2021/05/27 09:38:57;;;;;;;18.42;13.95;;;;;;;22.77;51.36;100003.09;5055356;28;20076;-52
2021/05/27 09:41:35;;;;;;;17.10;15.40;;;;;;;22.99;51.14;99995.66;5056856;28;20033;-58
2021/05/27 09:44:01;;;;;;;18.00;15.02;;;;;;;22.97;50.78;100000.50;5049764;28;20469;-53
2021/05/27 09:46:27;;;;;;;15.68;14.07;;;;;;;23.04;50.47;100001.38;5056905;28;20117;-51
2021/05/27 09:49:06;;;;;;;17.20;14.85;;;;;;;22.82;50.14;99945.19;5069417;28;20040;-52
2021/05/27 09:51:32;;;;;;;16.08;14.00;;;;;;;22.79;49.74;99955.44;5058228;28;20025;-62
2021/05/27 09:53:59;;;;;;;17.00;13.15;;;;;;;23.13;49.74;99998.47;5057063;28;20424;-59
2021/05/27 09:56:36;;;;;;;15.88;14.23;;;;;;;23.29;49.32;100000.06;5054499;28;20074;-56
2021/05/27 09:59:02;;;;;;;18.67;14.00;;;;;;;23.33;48.70;99988.50;5055744;28;20040;-57
2021/05/27 10:01:28;;;;;;;14.45;12.90;;;;;;;23.67;48.21;99998.72;5065052;28;20086;-50
2021/05/27 10:04:08;;;;;;;15.35;13.63;;;;;;;23.90;47.39;99991.00;5056976;28;20174;-56
2021/05/27 10:06:34;;;;;;;15.63;13.13;;;;;;;24.26;46.09;99991.69;5058642;28;20401;-55
2021/05/27 10:08:59;;;;;;;14.27;12.70;;;;;;;24.06;45.68;99926.00;5057080;28;20040;-55
2021/05/27 10:11:25;;;;;;;14.13;12.73;;;;;;;24.25;45.47;99956.31;5060285;28;20032;-54
2021/05/27 10:13:52;;;;;;;14.65;12.65;;;;;;;24.44;44.97;99996.50;5063956;28;20477;-52
2021/05/27 10:16:22;;;;;;;18.17;13.90;;;;;;;24.36;45.43;100003.03;5055830;28;20033;-52
2021/05/27 10:18:49;;;;;;;15.48;13.43;;;;;;;24.20;45.91;100001.56;5049693;28;20047;-49
2021/05/27 10:21:15;;;;;;;15.70;13.75;;;;;;;23.86;46.66;100006.09;5050454;28;20033;-47
2021/05/27 10:23:41;;;;;;;16.67;13.40;;;;;;;23.69;46.76;100010.28;5060038;28;20043;-54
2021/05/27 10:26:07;;;;;;;14.40;12.82;;;;;;;23.62;47.15;100019.28;5054759;28;20078;-50
2021/05/27 10:28:33;;;;;;;15.35;13.75;;;;;;;23.58;46.97;100001.63;5055383;28;20075;-54
2021/05/27 10:30:59;;;;;;;17.85;13.20;;;;;;;23.58;47.12;99995.31;5061734;28;20115;-49
2021/05/27 10:33:25;;;;;;;16.13;14.52;;;;;;;23.56;47.22;99991.97;5055039;28;20570;-51
2021/05/27 10:35:59;;;;;;;15.50;13.88;;;;;;;23.69;47.56;100015.75;5061566;28;20041;-53
2021/05/27 10:38:36;;;;;;;18.65;16.65;;;;;;;23.69;47.85;100010.28;5059975;28;20474;-50
2021/05/27 10:41:02;;;;;;;17.50;15.07;;;;;;;23.51;48.45;99998.03;5052558;28;20043;-56
2021/05/27 10:43:58;;;;;;;16.83;14.68;;;;;;;23.67;48.64;100013.22;5058257;28;20053;-56
2021/05/27 10:46:25;;;;;;;17.50;15.68;;;;;;;23.59;48.51;100006.03;5061028;28;20056;-52
2021/05/27 10:49:00;;;;;;;18.58;15.38;;;;;;;23.57;48.39;100013.59;5053551;28;20055;-51
2021/05/27 10:51:31;;;;;;;17.05;15.27;;;;;;;23.44;48.77;100008.94;5054382;28;20048;-48
2021/05/27 10:54:00;;;;;;;16.25;14.65;;;;;;;23.37;49.07;100006.16;5061239;28;20177;-51
2021/05/27 10:56:35;;;;;;;17.42;14.13;;;;;;;23.49;48.96;100009.16;5059579;28;20546;-50
2021/05/27 10:59:01;;;;;;;15.82;14.32;;;;;;;23.47;48.32;99999.50;5054597;28;20128;-51
2021/05/27 11:01:29;;;;;;;16.45;13.20;;;;;;;23.42;48.27;100007.47;5048992;28;20080;-48
2021/05/27 11:03:57;;;;;;;16.25;13.38;;;;;;;23.41;48.29;100000.31;5061511;28;20627;-47
2021/05/27 11:06:35;;;;;;;16.20;14.00;;;;;;;23.41;48.45;100000.31;5053806;28;20083;-46
2021/05/27 11:09:07;;;;;;;18.95;13.45;;;;;;;23.47;48.22;100003.06;5067424;28;20044;-52
2021/05/27 11:11:48;;;;;;;19.35;14.65;;;;;;;23.45;48.11;99996.13;5067388;28;20051;-47
2021/05/27 11:14:16;;;;;;;15.82;14.32;;;;;;;23.48;47.70;99992.97;5059402;28;20132;-47
2021/05/27 11:17:09;;;;;;;14.43;12.98;;;;;;;23.73;47.78;99984.22;5054346;28;20041;-49
2021/05/27 11:22:40;;;;;;;18.63;14.30;;;;;;;24.17;46.36;99985.56;5048745;28;20041;-47
2021/05/27 11:27:46;;;;;;;18.92;14.50;;;;;;;24.94;44.24;99981.50;5049096;28;20029;-54